This is the latest recevied weather packets stored in our database for station/object W0AKO. If no packets are shown the sender has not sent any weather packets the latest 1 day(s).
| Time | Temp. | Humidity | Pressure | Rain* | Wind** | Luminosity | Snow |
|---|---|---|---|---|---|---|---|
| 1778008742 | 21.67° C | 10% | 1012.1 hPa | 0 mm | 0.45 m/s, 170° | 553 W/m² | - |
| 1778008441 | 21.11° C | 10% | 1012 hPa | 0 mm | 4.02 m/s, 275° | 744 W/m² | - |
| 1778008137 | 21.11° C | 10% | 1012.3 hPa | 0 mm | 3.58 m/s, 267° | 740 W/m² | - |
| 1778007833 | 22.22° C | 10% | 1012 hPa | 0 mm | 2.24 m/s, 296° | 773 W/m² | - |
| 1778007528 | 22.78° C | 10% | 1011.9 hPa | 0 mm | 0.89 m/s, 246° | 775 W/m² | - |
| 1778007225 | 22.22° C | 10% | 1012 hPa | 0 mm | 0.89 m/s, 168° | 770 W/m² | - |
| 1778006921 | 21.11° C | 10% | 1012.1 hPa | 0 mm | 1.34 m/s, 187° | 786 W/m² | - |
| 1778006618 | 20.56° C | 10% | 1012.3 hPa | 0 mm | 0 m/s | 783 W/m² | - |
| 1778006315 | 20° C | 10% | 1012.5 hPa | 0 mm | 1.79 m/s, 304° | 773 W/m² | - |
| 1778006012 | 20° C | 10% | 1012.3 hPa | 0 mm | 3.13 m/s, 246° | 781 W/m² | - |
| 1778005709 | 20.56° C | 10% | 1012.3 hPa | 0 mm | 3.58 m/s, 259° | 141 W/m² | - |
| 1778005406 | 20° C | 10% | 1012.5 hPa | 0 mm | 3.58 m/s, 354° | 245 W/m² | - |
| 1778005103 | 20° C | 10% | 1012.6 hPa | 0 mm | 0.45 m/s, 243° | 829 W/m² | - |
| 1778004800 | 20.56° C | 10% | 1012.5 hPa | 0 mm | 1.34 m/s, 236° | 849 W/m² | - |
| 1778004496 | 20° C | 10% | 1012.3 hPa | 0 mm | 1.79 m/s, 353° | 861 W/m² | - |
| 1778004193 | 19.44° C | 10% | 1012.3 hPa | 0 mm | 0.89 m/s, 265° | 860 W/m² | - |
| 1778003889 | 19.44° C | 10% | 1012.6 hPa | 0 mm | 2.68 m/s, 260° | 866 W/m² | - |
| 1778003586 | 20° C | 10% | 1012.6 hPa | 0 mm | 2.24 m/s, 247° | 872 W/m² | - |
| 1778003283 | 19.44° C | 10% | 1012.7 hPa | 0 mm | 1.34 m/s, 289° | 876 W/m² | - |
| 1778002980 | 21.11° C | 10% | 1012.9 hPa | 0 mm | 3.13 m/s, 262° | 870 W/m² | - |
| 1778002675 | 20.56° C | 10% | 1012.7 hPa | 0 mm | 0.45 m/s, 105° | 776 W/m² | - |
| 1778002372 | 20.56° C | 10% | 1012.9 hPa | 0 mm | 1.34 m/s, 149° | 749 W/m² | - |
| 1778002069 | 18.89° C | 10% | 1012.7 hPa | 0 mm | 0.45 m/s, 170° | 717 W/m² | - |
| 1778001766 | 18.89° C | 10% | 1013 hPa | 0 mm | 0.45 m/s, 53° | 755 W/m² | - |
| 1778001466 | 18.89° C | 10% | 1012.6 hPa | 0 mm | 1.79 m/s, 257° | 771 W/m² | - |
* Rain latest hour (hover to see other rain measurements)
** Current wind speed in m/s (hover to see current wind gust speed)